sensor_id;sensor_type;location;lat;lon;timestamp;P1;durP1;ratioP1;P2;durP2;ratioP2
595;SDS011;19946;49.306;11.350;2023-03-14T00:02:25;0.60;;;0.60;;
595;SDS011;19946;49.306;11.350;2023-03-14T00:05:27;0.60;;;0.60;;
595;SDS011;19946;49.306;11.350;2023-03-14T00:08:27;0.60;;;0.60;;
595;SDS011;19946;49.306;11.350;2023-03-14T00:11:28;0.70;;;0.70;;
595;SDS011;19946;49.306;11.350;2023-03-14T00:14:30;0.80;;;0.80;;
595;SDS011;19946;49.306;11.350;2023-03-14T00:17:31;0.80;;;0.80;;
595;SDS011;19946;49.306;11.350;2023-03-14T00:20:31;0.80;;;0.80;;
595;SDS011;19946;49.306;11.350;2023-03-14T00:23:32;0.77;;;0.77;;
595;SDS011;19946;49.306;11.350;2023-03-14T00:26:34;0.70;;;0.70;;
595;SDS011;19946;49.306;11.350;2023-03-14T00:29:34;0.60;;;0.60;;
595;SDS011;19946;49.306;11.350;2023-03-14T00:32:35;0.50;;;0.50;;
595;SDS011;19946;49.306;11.350;2023-03-14T00:35:35;0.53;;;0.53;;
595;SDS011;19946;49.306;11.350;2023-03-14T00:38:37;0.40;;;0.40;;
595;SDS011;19946;49.306;11.350;2023-03-14T00:41:38;0.30;;;0.30;;
595;SDS011;19946;49.306;11.350;2023-03-14T00:44:39;0.40;;;0.40;;
595;SDS011;19946;49.306;11.350;2023-03-14T00:47:40;0.40;;;0.40;;
595;SDS011;19946;49.306;11.350;2023-03-14T00:50:45;0.40;;;0.40;;
595;SDS011;19946;49.306;11.350;2023-03-14T00:53:49;0.50;;;0.50;;
595;SDS011;19946;49.306;11.350;2023-03-14T00:56:49;0.60;;;0.60;;
595;SDS011;19946;49.306;11.350;2023-03-14T00:59:50;0.47;;;0.47;;
595;SDS011;19946;49.306;11.350;2023-03-14T01:02:51;0.40;;;0.40;;
595;SDS011;19946;49.306;11.350;2023-03-14T01:05:51;0.60;;;0.60;;
595;SDS011;19946;49.306;11.350;2023-03-14T01:08:52;0.50;;;0.50;;
595;SDS011;19946;49.306;11.350;2023-03-14T01:11:53;0.40;;;0.40;;
595;SDS011;19946;49.306;11.350;2023-03-14T01:14:54;0.50;;;0.50;;
595;SDS011;19946;49.306;11.350;2023-03-14T01:17:54;0.60;;;0.60;;
595;SDS011;19946;49.306;11.350;2023-03-14T01:20:54;0.50;;;0.50;;
595;SDS011;19946;49.306;11.350;2023-03-14T01:23:55;0.60;;;0.60;;
595;SDS011;19946;49.306;11.350;2023-03-14T01:26:57;0.50;;;0.50;;
595;SDS011;19946;49.306;11.350;2023-03-14T01:30:00;0.90;;;0.90;;
595;SDS011;19946;49.306;11.350;2023-03-14T01:33:00;0.80;;;0.80;;
595;SDS011;19946;49.306;11.350;2023-03-14T01:36:01;0.97;;;0.97;;
595;SDS011;19946;49.306;11.350;2023-03-14T01:39:05;1.10;;;1.10;;
595;SDS011;19946;49.306;11.350;2023-03-14T01:42:06;1.47;;;1.47;;
595;SDS011;19946;49.306;11.350;2023-03-14T01:45:53;2.20;;;2.13;;
595;SDS011;19946;49.306;11.350;2023-03-14T01:48:54;2.07;;;2.07;;
595;SDS011;19946;49.306;11.350;2023-03-14T01:52:10;2.23;;;2.23;;
595;SDS011;19946;49.306;11.350;2023-03-14T01:55:16;2.90;;;2.90;;
595;SDS011;19946;49.306;11.350;2023-03-14T01:58:19;2.23;;;2.23;;
595;SDS011;19946;49.306;11.350;2023-03-14T02:01:20;2.30;;;2.30;;
595;SDS011;19946;49.306;11.350;2023-03-14T02:04:23;3.70;;;3.70;;
595;SDS011;19946;49.306;11.350;2023-03-14T02:07:32;2.90;;;2.90;;
595;SDS011;19946;49.306;11.350;2023-03-14T02:10:51;2.80;;;2.80;;
595;SDS011;19946;49.306;11.350;2023-03-14T02:14:03;4.20;;;4.20;;
595;SDS011;19946;49.306;11.350;2023-03-14T02:17:31;5.70;;;5.70;;
595;SDS011;19946;49.306;11.350;2023-03-14T02:20:53;8.60;;;8.50;;
595;SDS011;19946;49.306;11.350;2023-03-14T02:27:15;10.23;;;10.03;;
595;SDS011;19946;49.306;11.350;2023-03-14T02:30:25;9.70;;;9.50;;
595;SDS011;19946;49.306;11.350;2023-03-14T02:33:28;7.90;;;7.80;;
595;SDS011;19946;49.306;11.350;2023-03-14T02:36:28;4.30;;;4.30;;
595;SDS011;19946;49.306;11.350;2023-03-14T02:39:38;4.33;;;4.33;;
595;SDS011;19946;49.306;11.350;2023-03-14T02:42:41;4.37;;;4.37;;
595;SDS011;19946;49.306;11.350;2023-03-14T02:45:43;5.00;;;5.00;;
595;SDS011;19946;49.306;11.350;2023-03-14T02:48:50;4.40;;;4.40;;
595;SDS011;19946;49.306;11.350;2023-03-14T02:51:54;4.20;;;4.20;;
595;SDS011;19946;49.306;11.350;2023-03-14T02:54:55;4.00;;;4.00;;
595;SDS011;19946;49.306;11.350;2023-03-14T02:57:56;4.07;;;4.07;;
595;SDS011;19946;49.306;11.350;2023-03-14T03:00:57;3.60;;;3.60;;
595;SDS011;19946;49.306;11.350;2023-03-14T03:03:58;3.30;;;3.30;;
595;SDS011;19946;49.306;11.350;2023-03-14T03:06:58;4.00;;;4.00;;
595;SDS011;19946;49.306;11.350;2023-03-14T03:09:58;4.67;;;4.67;;
595;SDS011;19946;49.306;11.350;2023-03-14T03:12:59;3.90;;;3.90;;
595;SDS011;19946;49.306;11.350;2023-03-14T03:16:01;3.93;;;3.93;;
595;SDS011;19946;49.306;11.350;2023-03-14T03:19:01;3.50;;;3.50;;
595;SDS011;19946;49.306;11.350;2023-03-14T03:22:02;3.10;;;3.10;;
595;SDS011;19946;49.306;11.350;2023-03-14T03:25:03;2.70;;;2.70;;
595;SDS011;19946;49.306;11.350;2023-03-14T03:28:04;1.80;;;1.80;;
595;SDS011;19946;49.306;11.350;2023-03-14T03:31:09;1.40;;;1.40;;
595;SDS011;19946;49.306;11.350;2023-03-14T03:34:12;2.30;;;2.30;;
595;SDS011;19946;49.306;11.350;2023-03-14T03:37:14;2.10;;;2.10;;
595;SDS011;19946;49.306;11.350;2023-03-14T03:40:16;1.90;;;1.90;;
595;SDS011;19946;49.306;11.350;2023-03-14T03:43:16;2.40;;;2.40;;
595;SDS011;19946;49.306;11.350;2023-03-14T03:46:20;2.50;;;2.50;;
595;SDS011;19946;49.306;11.350;2023-03-14T03:49:20;2.40;;;2.40;;
595;SDS011;19946;49.306;11.350;2023-03-14T03:52:21;2.90;;;2.90;;
595;SDS011;19946;49.306;11.350;2023-03-14T03:55:21;2.87;;;2.87;;
595;SDS011;19946;49.306;11.350;2023-03-14T03:58:22;2.20;;;2.20;;
595;SDS011;19946;49.306;11.350;2023-03-14T04:01:22;3.43;;;3.43;;
595;SDS011;19946;49.306;11.350;2023-03-14T04:04:26;3.30;;;3.30;;
595;SDS011;19946;49.306;11.350;2023-03-14T04:07:26;3.50;;;3.50;;
595;SDS011;19946;49.306;11.350;2023-03-14T04:10:27;2.50;;;2.50;;
595;SDS011;19946;49.306;11.350;2023-03-14T04:13:42;2.90;;;2.90;;
595;SDS011;19946;49.306;11.350;2023-03-14T04:16:43;3.07;;;3.07;;
595;SDS011;19946;49.306;11.350;2023-03-14T04:19:48;3.63;;;3.63;;
595;SDS011;19946;49.306;11.350;2023-03-14T04:22:52;3.27;;;3.27;;
595;SDS011;19946;49.306;11.350;2023-03-14T04:25:52;2.70;;;2.70;;
595;SDS011;19946;49.306;11.350;2023-03-14T04:28:55;3.90;;;3.90;;
595;SDS011;19946;49.306;11.350;2023-03-14T04:31:56;2.60;;;2.60;;
595;SDS011;19946;49.306;11.350;2023-03-14T04:34:57;2.80;;;2.80;;
595;SDS011;19946;49.306;11.350;2023-03-14T04:37:57;2.13;;;2.13;;
595;SDS011;19946;49.306;11.350;2023-03-14T04:40:59;3.03;;;3.03;;
595;SDS011;19946;49.306;11.350;2023-03-14T04:44:04;2.70;;;2.70;;
595;SDS011;19946;49.306;11.350;2023-03-14T04:47:05;2.30;;;2.30;;
595;SDS011;19946;49.306;11.350;2023-03-14T04:50:06;3.10;;;3.10;;
595;SDS011;19946;49.306;11.350;2023-03-14T04:53:09;2.40;;;2.40;;
595;SDS011;19946;49.306;11.350;2023-03-14T04:56:09;3.03;;;3.03;;
595;SDS011;19946;49.306;11.350;2023-03-14T04:59:13;3.67;;;3.43;;
595;SDS011;19946;49.306;11.350;2023-03-14T05:02:16;2.90;;;2.80;;
595;SDS011;19946;49.306;11.350;2023-03-14T05:05:30;2.40;;;2.40;;
595;SDS011;19946;49.306;11.350;2023-03-14T05:08:45;1.77;;;1.77;;
595;SDS011;19946;49.306;11.350;2023-03-14T05:12:00;2.17;;;2.17;;
595;SDS011;19946;49.306;11.350;2023-03-14T05:15:20;2.10;;;2.10;;
595;SDS011;19946;49.306;11.350;2023-03-14T05:18:39;2.40;;;2.40;;
595;SDS011;19946;49.306;11.350;2023-03-14T05:22:05;2.50;;;2.50;;
595;SDS011;19946;49.306;11.350;2023-03-14T05:25:16;3.37;;;3.37;;
595;SDS011;19946;49.306;11.350;2023-03-14T05:28:36;3.10;;;3.10;;
595;SDS011;19946;49.306;11.350;2023-03-14T05:31:49;2.53;;;2.53;;
595;SDS011;19946;49.306;11.350;2023-03-14T05:35:18;3.30;;;3.30;;
595;SDS011;19946;49.306;11.350;2023-03-14T05:38:36;2.20;;;2.20;;
595;SDS011;19946;49.306;11.350;2023-03-14T05:41:49;2.10;;;2.10;;
595;SDS011;19946;49.306;11.350;2023-03-14T05:45:03;2.80;;;2.80;;
595;SDS011;19946;49.306;11.350;2023-03-14T05:48:32;2.90;;;2.90;;
595;SDS011;19946;49.306;11.350;2023-03-14T05:51:46;1.70;;;1.70;;
595;SDS011;19946;49.306;11.350;2023-03-14T05:55:01;2.80;;;2.80;;
595;SDS011;19946;49.306;11.350;2023-03-14T05:58:31;2.40;;;2.40;;
595;SDS011;19946;49.306;11.350;2023-03-14T06:01:58;2.97;;;2.83;;
595;SDS011;19946;49.306;11.350;2023-03-14T06:05:01;2.13;;;2.13;;
595;SDS011;19946;49.306;11.350;2023-03-14T06:08:03;1.90;;;1.80;;
595;SDS011;19946;49.306;11.350;2023-03-14T06:11:23;2.10;;;2.10;;
595;SDS011;19946;49.306;11.350;2023-03-14T06:14:25;2.40;;;2.40;;
595;SDS011;19946;49.306;11.350;2023-03-14T06:17:27;2.20;;;2.20;;
595;SDS011;19946;49.306;11.350;2023-03-14T06:20:36;2.63;;;2.53;;
595;SDS011;19946;49.306;11.350;2023-03-14T06:23:41;1.90;;;1.90;;
595;SDS011;19946;49.306;11.350;2023-03-14T06:26:42;2.20;;;2.20;;
595;SDS011;19946;49.306;11.350;2023-03-14T06:29:44;2.60;;;2.60;;
595;SDS011;19946;49.306;11.350;2023-03-14T06:32:45;1.87;;;1.87;;
595;SDS011;19946;49.306;11.350;2023-03-14T06:35:48;2.47;;;2.47;;
595;SDS011;19946;49.306;11.350;2023-03-14T06:38:48;2.20;;;2.20;;
595;SDS011;19946;49.306;11.350;2023-03-14T06:41:49;1.60;;;1.60;;
595;SDS011;19946;49.306;11.350;2023-03-14T06:44:51;1.80;;;1.80;;
595;SDS011;19946;49.306;11.350;2023-03-14T06:47:52;2.00;;;2.00;;
595;SDS011;19946;49.306;11.350;2023-03-14T06:50:56;1.60;;;1.60;;
595;SDS011;19946;49.306;11.350;2023-03-14T06:53:58;1.90;;;1.90;;
595;SDS011;19946;49.306;11.350;2023-03-14T06:57:01;1.70;;;1.70;;
595;SDS011;19946;49.306;11.350;2023-03-14T07:00:04;2.60;;;2.47;;
595;SDS011;19946;49.306;11.350;2023-03-14T07:03:05;1.47;;;1.47;;
595;SDS011;19946;49.306;11.350;2023-03-14T07:06:11;1.80;;;1.80;;
595;SDS011;19946;49.306;11.350;2023-03-14T07:09:11;1.50;;;1.50;;
595;SDS011;19946;49.306;11.350;2023-03-14T07:12:16;1.80;;;1.80;;
595;SDS011;19946;49.306;11.350;2023-03-14T07:15:17;1.83;;;1.83;;
595;SDS011;19946;49.306;11.350;2023-03-14T07:18:18;1.90;;;1.90;;
595;SDS011;19946;49.306;11.350;2023-03-14T07:21:19;1.80;;;1.80;;
595;SDS011;19946;49.306;11.350;2023-03-14T07:24:20;2.07;;;2.07;;
595;SDS011;19946;49.306;11.350;2023-03-14T07:27:21;2.20;;;2.20;;
595;SDS011;19946;49.306;11.350;2023-03-14T07:30:23;2.07;;;2.07;;
595;SDS011;19946;49.306;11.350;2023-03-14T07:33:25;1.70;;;1.70;;
595;SDS011;19946;49.306;11.350;2023-03-14T07:36:29;2.60;;;2.60;;
595;SDS011;19946;49.306;11.350;2023-03-14T07:39:29;3.03;;;2.93;;
595;SDS011;19946;49.306;11.350;2023-03-14T07:42:38;1.70;;;1.70;;
595;SDS011;19946;49.306;11.350;2023-03-14T07:45:49;2.00;;;2.00;;
595;SDS011;19946;49.306;11.350;2023-03-14T07:48:49;1.50;;;1.50;;
595;SDS011;19946;49.306;11.350;2023-03-14T07:51:50;1.80;;;1.80;;
595;SDS011;19946;49.306;11.350;2023-03-14T07:54:50;1.70;;;1.70;;
595;SDS011;19946;49.306;11.350;2023-03-14T07:57:51;1.60;;;1.60;;
595;SDS011;19946;49.306;11.350;2023-03-14T08:00:52;1.70;;;1.70;;
595;SDS011;19946;49.306;11.350;2023-03-14T08:03:53;1.40;;;1.40;;
595;SDS011;19946;49.306;11.350;2023-03-14T08:06:53;1.27;;;1.27;;
595;SDS011;19946;49.306;11.350;2023-03-14T08:09:54;1.30;;;1.30;;
595;SDS011;19946;49.306;11.350;2023-03-14T08:12:56;1.50;;;1.50;;
595;SDS011;19946;49.306;11.350;2023-03-14T08:15:58;1.70;;;1.70;;
595;SDS011;19946;49.306;11.350;2023-03-14T08:18:58;1.50;;;1.50;;
595;SDS011;19946;49.306;11.350;2023-03-14T08:21:59;2.20;;;2.20;;
595;SDS011;19946;49.306;11.350;2023-03-14T08:25:00;2.00;;;2.00;;
595;SDS011;19946;49.306;11.350;2023-03-14T08:28:01;1.80;;;1.80;;
595;SDS011;19946;49.306;11.350;2023-03-14T08:31:01;1.60;;;1.60;;
595;SDS011;19946;49.306;11.350;2023-03-14T08:34:02;2.00;;;2.00;;
595;SDS011;19946;49.306;11.350;2023-03-14T08:37:03;2.73;;;2.73;;
595;SDS011;19946;49.306;11.350;2023-03-14T08:40:04;3.83;;;3.63;;
595;SDS011;19946;49.306;11.350;2023-03-14T08:43:10;2.70;;;2.70;;
595;SDS011;19946;49.306;11.350;2023-03-14T08:46:10;2.30;;;2.30;;
595;SDS011;19946;49.306;11.350;2023-03-14T08:49:10;2.50;;;2.50;;
595;SDS011;19946;49.306;11.350;2023-03-14T08:52:12;2.77;;;2.77;;
595;SDS011;19946;49.306;11.350;2023-03-14T08:55:12;3.00;;;2.90;;
595;SDS011;19946;49.306;11.350;2023-03-14T08:58:14;2.00;;;2.00;;
595;SDS011;19946;49.306;11.350;2023-03-14T09:01:14;2.17;;;2.17;;
595;SDS011;19946;49.306;11.350;2023-03-14T09:04:15;2.40;;;2.40;;
595;SDS011;19946;49.306;11.350;2023-03-14T09:07:15;2.00;;;2.00;;
595;SDS011;19946;49.306;11.350;2023-03-14T09:10:16;2.60;;;2.60;;
595;SDS011;19946;49.306;11.350;2023-03-14T09:13:16;2.70;;;2.70;;
595;SDS011;19946;49.306;11.350;2023-03-14T09:16:17;3.10;;;3.00;;
595;SDS011;19946;49.306;11.350;2023-03-14T09:19:17;2.60;;;2.60;;
595;SDS011;19946;49.306;11.350;2023-03-14T09:22:20;2.73;;;2.73;;
595;SDS011;19946;49.306;11.350;2023-03-14T09:25:24;3.37;;;3.37;;
595;SDS011;19946;49.306;11.350;2023-03-14T09:28:24;3.60;;;3.60;;
595;SDS011;19946;49.306;11.350;2023-03-14T09:31:26;4.40;;;4.40;;
595;SDS011;19946;49.306;11.350;2023-03-14T09:34:27;3.90;;;3.90;;
595;SDS011;19946;49.306;11.350;2023-03-14T09:37:30;4.00;;;4.00;;
595;SDS011;19946;49.306;11.350;2023-03-14T09:40:32;3.57;;;3.57;;
595;SDS011;19946;49.306;11.350;2023-03-14T09:43:35;4.20;;;4.20;;
595;SDS011;19946;49.306;11.350;2023-03-14T09:46:36;4.47;;;4.47;;
595;SDS011;19946;49.306;11.350;2023-03-14T09:49:40;4.80;;;4.80;;
595;SDS011;19946;49.306;11.350;2023-03-14T09:52:43;4.10;;;4.10;;
595;SDS011;19946;49.306;11.350;2023-03-14T09:55:49;3.80;;;3.80;;
595;SDS011;19946;49.306;11.350;2023-03-14T09:59:00;4.27;;;4.27;;
595;SDS011;19946;49.306;11.350;2023-03-14T10:02:23;4.10;;;4.10;;
595;SDS011;19946;49.306;11.350;2023-03-14T10:05:25;4.60;;;4.60;;
595;SDS011;19946;49.306;11.350;2023-03-14T10:08:28;4.50;;;4.50;;
595;SDS011;19946;49.306;11.350;2023-03-14T10:11:32;4.23;;;4.23;;
595;SDS011;19946;49.306;11.350;2023-03-14T10:14:34;3.80;;;3.80;;
595;SDS011;19946;49.306;11.350;2023-03-14T10:17:43;4.10;;;4.10;;
595;SDS011;19946;49.306;11.350;2023-03-14T10:20:47;4.67;;;4.67;;
595;SDS011;19946;49.306;11.350;2023-03-14T10:23:48;4.50;;;4.50;;
595;SDS011;19946;49.306;11.350;2023-03-14T10:26:52;4.00;;;4.00;;
595;SDS011;19946;49.306;11.350;2023-03-14T10:29:54;3.90;;;3.90;;
595;SDS011;19946;49.306;11.350;2023-03-14T10:32:57;4.10;;;4.10;;
595;SDS011;19946;49.306;11.350;2023-03-14T10:36:00;4.30;;;4.30;;
595;SDS011;19946;49.306;11.350;2023-03-14T10:42:26;3.60;;;3.60;;
595;SDS011;19946;49.306;11.350;2023-03-14T10:48:38;4.30;;;4.30;;
595;SDS011;19946;49.306;11.350;2023-03-14T10:51:41;4.50;;;4.50;;
595;SDS011;19946;49.306;11.350;2023-03-14T10:54:46;4.60;;;4.60;;
595;SDS011;19946;49.306;11.350;2023-03-14T10:57:48;3.70;;;3.70;;
595;SDS011;19946;49.306;11.350;2023-03-14T11:00:50;4.00;;;4.00;;
595;SDS011;19946;49.306;11.350;2023-03-14T11:04:03;4.10;;;4.10;;
595;SDS011;19946;49.306;11.350;2023-03-14T11:07:27;4.40;;;4.40;;
595;SDS011;19946;49.306;11.350;2023-03-14T11:10:39;4.07;;;4.07;;
595;SDS011;19946;49.306;11.350;2023-03-14T11:13:50;3.73;;;3.73;;
595;SDS011;19946;49.306;11.350;2023-03-14T11:17:19;3.70;;;3.70;;
595;SDS011;19946;49.306;11.350;2023-03-14T11:24:00;4.10;;;4.10;;
595;SDS011;19946;49.306;11.350;2023-03-14T11:30:27;4.83;;;4.83;;
595;SDS011;19946;49.306;11.350;2023-03-14T11:34:00;4.70;;;4.70;;
595;SDS011;19946;49.306;11.350;2023-03-14T11:37:12;3.80;;;3.80;;
595;SDS011;19946;49.306;11.350;2023-03-14T11:40:22;3.60;;;3.60;;
595;SDS011;19946;49.306;11.350;2023-03-14T11:43:32;3.70;;;3.70;;
595;SDS011;19946;49.306;11.350;2023-03-14T11:46:53;3.40;;;3.40;;
595;SDS011;19946;49.306;11.350;2023-03-14T11:53:15;3.70;;;3.70;;
595;SDS011;19946;49.306;11.350;2023-03-14T11:56:22;3.80;;;3.80;;
595;SDS011;19946;49.306;11.350;2023-03-14T12:02:59;4.30;;;4.30;;
595;SDS011;19946;49.306;11.350;2023-03-14T12:09:51;4.20;;;4.20;;
595;SDS011;19946;49.306;11.350;2023-03-14T12:12:53;5.07;;;5.07;;
595;SDS011;19946;49.306;11.350;2023-03-14T12:15:58;4.90;;;4.80;;
595;SDS011;19946;49.306;11.350;2023-03-14T12:19:14;4.60;;;4.60;;
595;SDS011;19946;49.306;11.350;2023-03-14T12:22:23;4.40;;;4.40;;
595;SDS011;19946;49.306;11.350;2023-03-14T12:25:26;4.40;;;4.40;;
595;SDS011;19946;49.306;11.350;2023-03-14T12:28:32;4.10;;;4.10;;
595;SDS011;19946;49.306;11.350;2023-03-14T12:31:37;5.20;;;5.20;;
595;SDS011;19946;49.306;11.350;2023-03-14T12:34:43;5.23;;;5.23;;
595;SDS011;19946;49.306;11.350;2023-03-14T12:37:45;4.70;;;4.70;;
595;SDS011;19946;49.306;11.350;2023-03-14T12:50:40;3.70;;;3.70;;
595;SDS011;19946;49.306;11.350;2023-03-14T13:00:33;3.50;;;3.50;;
595;SDS011;19946;49.306;11.350;2023-03-14T13:03:54;3.50;;;3.50;;
595;SDS011;19946;49.306;11.350;2023-03-14T13:06:58;3.67;;;3.67;;
595;SDS011;19946;49.306;11.350;2023-03-14T13:13:22;3.60;;;3.60;;
595;SDS011;19946;49.306;11.350;2023-03-14T13:16:27;3.70;;;3.70;;
595;SDS011;19946;49.306;11.350;2023-03-14T13:19:29;3.30;;;3.30;;
595;SDS011;19946;49.306;11.350;2023-03-14T13:22:33;2.93;;;2.93;;
595;SDS011;19946;49.306;11.350;2023-03-14T13:25:37;2.10;;;2.10;;
595;SDS011;19946;49.306;11.350;2023-03-14T13:28:37;1.80;;;1.80;;
595;SDS011;19946;49.306;11.350;2023-03-14T13:31:38;1.90;;;1.90;;
595;SDS011;19946;49.306;11.350;2023-03-14T13:34:45;1.80;;;1.80;;
595;SDS011;19946;49.306;11.350;2023-03-14T13:37:51;1.93;;;1.93;;
595;SDS011;19946;49.306;11.350;2023-03-14T13:40:56;1.60;;;1.60;;
595;SDS011;19946;49.306;11.350;2023-03-14T13:44:07;1.90;;;1.90;;
595;SDS011;19946;49.306;11.350;2023-03-14T13:47:15;1.90;;;1.90;;
595;SDS011;19946;49.306;11.350;2023-03-14T13:50:17;2.97;;;2.87;;
595;SDS011;19946;49.306;11.350;2023-03-14T13:53:18;3.00;;;3.00;;
595;SDS011;19946;49.306;11.350;2023-03-14T13:56:22;3.10;;;3.10;;
595;SDS011;19946;49.306;11.350;2023-03-14T13:59:25;3.20;;;3.20;;
595;SDS011;19946;49.306;11.350;2023-03-14T14:02:28;1.63;;;1.63;;
595;SDS011;19946;49.306;11.350;2023-03-14T14:05:29;1.40;;;1.40;;
595;SDS011;19946;49.306;11.350;2023-03-14T14:08:31;1.93;;;1.93;;
595;SDS011;19946;49.306;11.350;2023-03-14T14:11:37;2.10;;;2.10;;
595;SDS011;19946;49.306;11.350;2023-03-14T14:15:11;1.97;;;1.83;;
595;SDS011;19946;49.306;11.350;2023-03-14T14:18:18;2.10;;;2.10;;
595;SDS011;19946;49.306;11.350;2023-03-14T14:21:22;2.00;;;2.00;;
595;SDS011;19946;49.306;11.350;2023-03-14T14:24:24;2.23;;;2.03;;
595;SDS011;19946;49.306;11.350;2023-03-14T14:27:33;1.50;;;1.50;;
595;SDS011;19946;49.306;11.350;2023-03-14T14:30:37;1.70;;;1.60;;
595;SDS011;19946;49.306;11.350;2023-03-14T14:33:44;1.90;;;1.80;;
595;SDS011;19946;49.306;11.350;2023-03-14T14:36:46;2.10;;;2.10;;
595;SDS011;19946;49.306;11.350;2023-03-14T14:39:50;2.10;;;2.10;;
595;SDS011;19946;49.306;11.350;2023-03-14T14:42:52;2.77;;;2.67;;
595;SDS011;19946;49.306;11.350;2023-03-14T14:45:54;1.47;;;1.47;;
595;SDS011;19946;49.306;11.350;2023-03-14T14:48:56;1.57;;;1.57;;
595;SDS011;19946;49.306;11.350;2023-03-14T14:52:03;2.60;;;2.40;;
595;SDS011;19946;49.306;11.350;2023-03-14T14:55:19;2.13;;;1.93;;
595;SDS011;19946;49.306;11.350;2023-03-14T14:58:55;1.10;;;1.10;;
595;SDS011;19946;49.306;11.350;2023-03-14T15:01:48;1.10;;;1.10;;
595;SDS011;19946;49.306;11.350;2023-03-14T15:04:52;1.40;;;1.40;;
595;SDS011;19946;49.306;11.350;2023-03-14T15:07:53;1.00;;;1.00;;
595;SDS011;19946;49.306;11.350;2023-03-14T15:10:54;1.40;;;1.40;;
595;SDS011;19946;49.306;11.350;2023-03-14T15:13:55;1.67;;;1.57;;
595;SDS011;19946;49.306;11.350;2023-03-14T15:16:55;1.10;;;1.10;;
595;SDS011;19946;49.306;11.350;2023-03-14T15:19:56;1.60;;;1.60;;
595;SDS011;19946;49.306;11.350;2023-03-14T15:22:58;1.90;;;1.80;;
595;SDS011;19946;49.306;11.350;2023-03-14T15:26:02;1.40;;;1.40;;
595;SDS011;19946;49.306;11.350;2023-03-14T15:29:02;1.60;;;1.60;;
595;SDS011;19946;49.306;11.350;2023-03-14T15:32:03;1.20;;;1.20;;
595;SDS011;19946;49.306;11.350;2023-03-14T15:35:04;2.77;;;1.40;;
595;SDS011;19946;49.306;11.350;2023-03-14T15:38:05;1.03;;;1.03;;
595;SDS011;19946;49.306;11.350;2023-03-14T15:41:05;1.10;;;1.10;;
595;SDS011;19946;49.306;11.350;2023-03-14T15:44:06;1.20;;;1.20;;
595;SDS011;19946;49.306;11.350;2023-03-14T15:47:08;1.60;;;1.60;;
595;SDS011;19946;49.306;11.350;2023-03-14T15:50:10;8.83;;;3.20;;
595;SDS011;19946;49.306;11.350;2023-03-14T15:53:11;1.27;;;1.27;;
595;SDS011;19946;49.306;11.350;2023-03-14T15:56:12;1.37;;;1.37;;
595;SDS011;19946;49.306;11.350;2023-03-14T15:59:15;1.40;;;1.40;;
595;SDS011;19946;49.306;11.350;2023-03-14T16:02:15;1.40;;;1.40;;
595;SDS011;19946;49.306;11.350;2023-03-14T16:05:16;2.97;;;2.77;;
595;SDS011;19946;49.306;11.350;2023-03-14T16:08:20;1.43;;;1.43;;
595;SDS011;19946;49.306;11.350;2023-03-14T16:11:20;1.90;;;1.90;;
595;SDS011;19946;49.306;11.350;2023-03-14T16:14:21;2.37;;;2.27;;
595;SDS011;19946;49.306;11.350;2023-03-14T16:17:23;2.43;;;2.33;;
595;SDS011;19946;49.306;11.350;2023-03-14T16:23:54;2.17;;;2.17;;
595;SDS011;19946;49.306;11.350;2023-03-14T16:26:55;1.57;;;1.57;;
595;SDS011;19946;49.306;11.350;2023-03-14T16:29:56;1.80;;;1.80;;
595;SDS011;19946;49.306;11.350;2023-03-14T16:33:00;1.83;;;1.83;;
595;SDS011;19946;49.306;11.350;2023-03-14T16:36:02;1.60;;;1.60;;
595;SDS011;19946;49.306;11.350;2023-03-14T16:39:11;1.80;;;1.80;;
595;SDS011;19946;49.306;11.350;2023-03-14T16:42:11;2.10;;;2.10;;
595;SDS011;19946;49.306;11.350;2023-03-14T16:45:12;1.80;;;1.80;;
595;SDS011;19946;49.306;11.350;2023-03-14T16:48:12;1.90;;;1.90;;
595;SDS011;19946;49.306;11.350;2023-03-14T16:51:15;1.97;;;1.97;;
595;SDS011;19946;49.306;11.350;2023-03-14T16:54:16;2.20;;;2.20;;
595;SDS011;19946;49.306;11.350;2023-03-14T16:57:16;1.93;;;1.93;;
595;SDS011;19946;49.306;11.350;2023-03-14T17:00:17;1.87;;;1.87;;
595;SDS011;19946;49.306;11.350;2023-03-14T17:03:18;1.80;;;1.80;;
595;SDS011;19946;49.306;11.350;2023-03-14T17:06:20;2.10;;;2.10;;
595;SDS011;19946;49.306;11.350;2023-03-14T17:09:25;2.00;;;2.00;;
595;SDS011;19946;49.306;11.350;2023-03-14T17:12:27;2.10;;;2.10;;
595;SDS011;19946;49.306;11.350;2023-03-14T17:15:28;1.97;;;1.97;;
595;SDS011;19946;49.306;11.350;2023-03-14T17:18:29;2.00;;;2.00;;
595;SDS011;19946;49.306;11.350;2023-03-14T17:21:30;1.83;;;1.83;;
595;SDS011;19946;49.306;11.350;2023-03-14T17:24:31;1.90;;;1.90;;
595;SDS011;19946;49.306;11.350;2023-03-14T17:27:31;1.80;;;1.80;;
595;SDS011;19946;49.306;11.350;2023-03-14T17:30:32;2.40;;;2.40;;
595;SDS011;19946;49.306;11.350;2023-03-14T17:33:33;1.90;;;1.90;;
595;SDS011;19946;49.306;11.350;2023-03-14T17:36:34;1.90;;;1.90;;
595;SDS011;19946;49.306;11.350;2023-03-14T17:39:35;1.90;;;1.90;;
595;SDS011;19946;49.306;11.350;2023-03-14T17:42:38;1.80;;;1.80;;
595;SDS011;19946;49.306;11.350;2023-03-14T17:45:38;2.00;;;2.00;;
595;SDS011;19946;49.306;11.350;2023-03-14T17:48:39;1.70;;;1.70;;
595;SDS011;19946;49.306;11.350;2023-03-14T17:51:41;1.93;;;1.93;;
595;SDS011;19946;49.306;11.350;2023-03-14T17:54:41;1.70;;;1.70;;
595;SDS011;19946;49.306;11.350;2023-03-14T17:57:41;2.10;;;2.10;;
595;SDS011;19946;49.306;11.350;2023-03-14T18:00:43;2.00;;;2.00;;
595;SDS011;19946;49.306;11.350;2023-03-14T18:03:44;1.80;;;1.80;;
595;SDS011;19946;49.306;11.350;2023-03-14T18:06:45;1.70;;;1.70;;
595;SDS011;19946;49.306;11.350;2023-03-14T18:09:45;1.80;;;1.80;;
595;SDS011;19946;49.306;11.350;2023-03-14T18:12:46;1.93;;;1.93;;
595;SDS011;19946;49.306;11.350;2023-03-14T18:15:46;1.70;;;1.70;;
595;SDS011;19946;49.306;11.350;2023-03-14T18:18:47;1.80;;;1.80;;
595;SDS011;19946;49.306;11.350;2023-03-14T18:21:48;1.90;;;1.90;;
595;SDS011;19946;49.306;11.350;2023-03-14T18:24:50;1.90;;;1.90;;
595;SDS011;19946;49.306;11.350;2023-03-14T18:27:51;1.80;;;1.80;;
595;SDS011;19946;49.306;11.350;2023-03-14T18:30:52;1.80;;;1.80;;
595;SDS011;19946;49.306;11.350;2023-03-14T18:33:53;1.80;;;1.80;;
595;SDS011;19946;49.306;11.350;2023-03-14T18:36:56;2.20;;;2.20;;
595;SDS011;19946;49.306;11.350;2023-03-14T18:39:57;2.00;;;2.00;;
595;SDS011;19946;49.306;11.350;2023-03-14T18:42:58;2.47;;;2.47;;
595;SDS011;19946;49.306;11.350;2023-03-14T18:45:58;1.90;;;1.90;;
595;SDS011;19946;49.306;11.350;2023-03-14T18:48:59;1.90;;;1.90;;
595;SDS011;19946;49.306;11.350;2023-03-14T18:52:02;2.00;;;2.00;;
595;SDS011;19946;49.306;11.350;2023-03-14T18:55:03;1.93;;;1.93;;
595;SDS011;19946;49.306;11.350;2023-03-14T18:58:04;1.90;;;1.90;;
595;SDS011;19946;49.306;11.350;2023-03-14T19:01:04;1.73;;;1.73;;
595;SDS011;19946;49.306;11.350;2023-03-14T19:04:05;1.90;;;1.90;;
595;SDS011;19946;49.306;11.350;2023-03-14T19:07:06;1.50;;;1.50;;
595;SDS011;19946;49.306;11.350;2023-03-14T19:10:07;1.70;;;1.70;;
595;SDS011;19946;49.306;11.350;2023-03-14T19:13:08;1.70;;;1.70;;
595;SDS011;19946;49.306;11.350;2023-03-14T19:16:10;1.80;;;1.80;;
595;SDS011;19946;49.306;11.350;2023-03-14T19:19:12;1.80;;;1.80;;
595;SDS011;19946;49.306;11.350;2023-03-14T19:22:12;1.70;;;1.70;;
595;SDS011;19946;49.306;11.350;2023-03-14T19:25:13;1.60;;;1.60;;
595;SDS011;19946;49.306;11.350;2023-03-14T19:28:13;1.60;;;1.60;;
595;SDS011;19946;49.306;11.350;2023-03-14T19:31:14;1.70;;;1.70;;
595;SDS011;19946;49.306;11.350;2023-03-14T19:34:15;1.63;;;1.63;;
595;SDS011;19946;49.306;11.350;2023-03-14T19:37:15;1.90;;;1.90;;